Time;durP1;ratioP1;P1;durP2;ratioP2;P2;SDS_P1;SDS_P2;PMS_P1;PMS_P2;Temp;Humidity;BMP_temperature;BMP_pressure;BME280_temperature;BME280_humidity;BME280_pressure;Samples;Min_cycle;Max_cycle;Signal;HPM_P1;HPM_P2
2022/10/15 00:01:57;;;;;;;20.55;10.48;;;;;;;10.61;100.00;100722.78;10544772;28;20051;-67
2022/10/15 00:06:57;;;;;;;25.13;12.10;;;;;;;10.65;100.00;100721.47;10543359;28;20063;-66
2022/10/15 00:11:58;;;;;;;29.45;15.10;;;;;;;10.47;100.00;100685.22;10544671;28;20048;-67
2022/10/15 00:16:59;;;;;;;16.67;9.63;;;;;;;10.78;100.00;100721.06;10544065;28;20036;-67
2022/10/15 00:22:00;;;;;;;11.93;8.80;;;;;;;10.85;100.00;100725.56;10544026;28;20036;-67
2022/10/15 00:27:01;;;;;;;12.50;8.80;;;;;;;10.35;100.00;100621.91;10543097;28;20036;-67
2022/10/15 00:32:02;;;;;;;13.80;8.30;;;;;;;10.96;100.00;100711.16;10544235;28;20142;-68
2022/10/15 00:37:03;;;;;;;10.88;7.60;;;;;;;11.15;100.00;100721.50;10543381;28;20052;-67
2022/10/15 00:42:05;;;;;;;11.98;8.48;;;;;;;10.59;100.00;100634.44;10542671;28;20040;-67
2022/10/15 00:47:25;;;;;;;8.75;7.32;;;;;;;10.70;100.00;100636.81;10543139;28;20615;-67
2022/10/15 00:52:34;;;;;;;10.25;7.47;;;;;;;11.16;100.00;100717.03;10542128;28;20071;-67
2022/10/15 00:57:35;;;;;;;11.18;7.95;;;;;;;10.80;100.00;100644.63;10542711;28;20044;-67
2022/10/15 01:02:36;;;;;;;13.02;8.00;;;;;;;10.73;100.00;100641.81;10542105;28;20403;-67
2022/10/15 01:07:37;;;;;;;10.68;8.13;;;;;;;11.29;100.00;100749.28;10542703;28;20043;-67
2022/10/15 01:13:11;;;;;;;11.63;8.07;;;;;;;11.37;100.00;100746.66;10541221;28;20047;-67
2022/10/15 01:18:19;;;;;;;;;;;;;;;11.51;100.00;100742.50;10530969;28;20036;-67
2022/10/15 01:23:26;;;;;;;11.50;7.55;;;;;;;11.40;100.00;100750.81;10541125;28;19912;-67
2022/10/15 01:28:45;;;;;;;13.10;8.50;;;;;;;11.36;100.00;100758.28;10523124;28;20142;-67
2022/10/15 01:34:12;;;;;;;11.10;7.57;;;;;;;11.41;100.00;100761.28;10541109;28;20071;-67
2022/10/15 01:39:27;;;;;;;13.77;9.40;;;;;;;11.31;100.00;100752.63;10541284;28;20050;-67
2022/10/15 01:44:35;;;;;;;15.85;9.65;;;;;;;11.38;100.00;100760.78;10541570;28;20391;-67
2022/10/15 01:49:44;;;;;;;13.20;9.52;;;;;;;11.14;100.00;100730.47;10539919;28;20047;-67
2022/10/15 01:54:51;;;;;;;15.70;10.05;;;;;;;10.78;100.00;100667.91;10540320;28;20036;-67
2022/10/15 01:59:53;;;;;;;19.95;10.68;;;;;;;11.35;100.00;100772.56;10540265;28;20544;-66
2022/10/15 02:04:53;;;;;;;15.45;10.88;;;;;;;11.35;100.00;100769.09;10539915;28;20560;-67
2022/10/15 02:10:08;;;;;;;13.43;10.02;;;;;;;10.96;100.00;100695.19;10539442;28;20180;-67
2022/10/15 02:15:39;;;;;;;15.88;10.80;;;;;;;11.10;100.00;100715.84;10538377;28;20044;-67
2022/10/15 02:20:52;;;;;;;22.63;9.80;;;;;;;11.38;100.00;100787.38;10539457;28;20043;-66
2022/10/15 02:25:55;;;;;;;13.45;9.00;;;;;;;10.76;100.00;100685.81;10539234;28;20051;-66
2022/10/15 02:30:58;;;;;;;12.20;8.75;;;;;;;11.30;100.00;100780.19;10539592;28;20407;-66
2022/10/15 02:36:00;;;;;;;17.75;9.60;;;;;;;11.18;100.00;100800.94;10539320;28;20134;-66
2022/10/15 02:41:01;;;;;;;18.70;9.65;;;;;;;11.05;100.00;100783.78;10537988;28;20036;-66
2022/10/15 02:46:04;;;;;;;19.33;9.35;;;;;;;11.12;100.00;100790.13;10520240;28;20040;-66
2022/10/15 02:51:05;;;;;;;13.73;8.77;;;;;;;11.16;100.00;100796.81;10537943;28;20039;-66
2022/10/15 02:56:06;;;;;;;11.95;9.52;;;;;;;11.21;100.00;100794.47;10520422;28;20503;-66
2022/10/15 03:01:06;;;;;;;16.40;9.23;;;;;;;11.23;100.00;100811.09;10537857;28;20507;-66
2022/10/15 03:06:07;;;;;;;22.30;9.82;;;;;;;11.20;100.00;100803.44;10538260;28;20043;-66
2022/10/15 03:11:09;;;;;;;15.10;10.43;;;;;;;11.05;100.00;100787.28;10537384;28;20128;-66
2022/10/15 03:16:11;;;;;;;20.90;9.90;;;;;;;11.03;100.00;100793.75;10537360;28;20039;-66
2022/10/15 03:21:11;;;;;;;16.58;10.13;;;;;;;11.14;100.00;100810.25;10536965;28;20412;-66
2022/10/15 03:26:12;;;;;;;23.45;12.60;;;;;;;10.92;100.00;100782.41;10543630;28;20044;-65
2022/10/15 03:31:13;;;;;;;29.77;13.02;;;;;;;11.12;100.00;100806.91;10546331;28;20060;-66
2022/10/15 03:36:14;;;;;;;43.10;13.80;;;;;;;10.99;100.00;100784.44;10545945;28;20044;-66
2022/10/15 03:41:15;;;;;;;24.50;13.13;;;;;;;10.48;100.00;100712.63;10546148;28;20040;-66
2022/10/15 03:46:15;;;;;;;27.88;14.40;;;;;;;11.09;100.00;100828.50;10545586;28;20053;-66
2022/10/15 03:51:16;;;;;;;24.48;14.65;;;;;;;11.14;100.00;100825.38;10544640;28;20042;-68
2022/10/15 03:56:17;;;;;;;31.50;15.70;;;;;;;11.19;100.00;100823.06;10545924;28;20470;-68
2022/10/15 04:01:18;;;;;;;31.92;16.08;;;;;;;11.26;100.00;100834.72;10544691;28;20040;-68
2022/10/15 04:06:19;;;;;;;23.95;15.15;;;;;;;11.34;100.00;100842.75;10527130;28;20055;-68
2022/10/15 04:11:20;;;;;;;88.38;46.10;;;;;;;11.28;100.00;100826.59;10544466;28;20032;-68
2022/10/15 04:16:21;;;;;;;143.88;84.32;;;;;;;11.45;100.00;100859.38;10544286;28;20399;-68
2022/10/15 04:21:22;;;;;;;121.75;64.78;;;;;;;11.46;100.00;100858.38;10545092;28;20032;-68
2022/10/15 04:26:23;;;;;;;151.73;72.50;;;;;;;10.80;100.00;100758.91;10543366;28;20192;-67
2022/10/15 04:31:23;;;;;;;149.23;79.78;;;;;;;11.30;100.00;100853.84;10530418;28;20057;-67
2022/10/15 04:36:24;;;;;;;85.53;46.15;;;;;;;11.36;100.00;100866.50;10482582;28;20051;-67
2022/10/15 04:41:25;;;;;;;48.78;25.50;;;;;;;11.47;100.00;100878.69;10501160;28;20093;-67
2022/10/15 04:46:26;;;;;;;33.15;16.38;;;;;;;11.36;100.00;100850.53;10500714;28;20044;-69
2022/10/15 04:51:27;;;;;;;23.80;14.70;;;;;;;11.47;100.00;100860.91;10500476;28;20036;-67
2022/10/15 04:56:28;;;;;;;31.33;17.08;;;;;;;11.04;100.00;100785.63;10500243;28;20067;-67
2022/10/15 05:01:29;;;;;;;23.60;14.57;;;;;;;11.69;100.00;100893.22;10501300;28;20048;-68
2022/10/15 05:06:31;;;;;;;26.20;14.00;;;;;;;11.80;100.00;100892.94;10500865;28;20037;-67
2022/10/15 05:11:36;;;;;;;25.08;13.88;;;;;;;11.85;100.00;100894.16;10499433;28;20105;-67
2022/10/15 05:16:37;;;;;;;22.23;13.63;;;;;;;10.85;100.00;100712.25;10512496;28;20085;-67
2022/10/15 05:21:38;;;;;;;28.98;16.30;;;;;;;12.00;100.00;100907.66;10502365;28;20097;-67
2022/10/15 05:26:39;;;;;;;30.83;14.85;;;;;;;11.85;100.00;100906.63;10511682;28;20510;-67
2022/10/15 05:31:40;;;;;;;85.72;17.08;;;;;;;11.89;100.00;100905.28;10510970;28;20109;-67
2022/10/15 05:36:41;;;;;;;28.20;16.67;;;;;;;11.97;100.00;100912.47;10524105;28;20036;-67
2022/10/15 05:41:42;;;;;;;23.40;15.98;;;;;;;12.00;100.00;100912.16;10520663;28;20044;-67
2022/10/15 05:46:42;;;;;;;26.65;15.30;;;;;;;12.05;100.00;100904.50;10538776;28;20036;-68
2022/10/15 05:54:00;;;;;;;34.90;15.68;;;;;;;12.10;100.00;100920.81;10587576;27;21221;-68
2022/10/15 05:59:02;;;;;;;40.08;16.88;;;;;;;12.03;100.00;100890.53;10571850;28;20498;-68
2022/10/15 06:04:03;;;;;;;35.38;16.17;;;;;;;12.02;100.00;100860.38;10572517;28;20056;-69
2022/10/15 06:09:04;;;;;;;39.80;17.17;;;;;;;12.45;100.00;100919.69;10570532;28;20048;-69
2022/10/15 06:14:04;;;;;;;31.30;14.75;;;;;;;12.54;100.00;100915.19;10570339;28;20073;-69
2022/10/15 06:19:05;;;;;;;18.27;12.18;;;;;;;12.58;100.00;100911.19;10571724;28;20062;-68
2022/10/15 06:24:06;;;;;;;24.27;11.77;;;;;;;12.11;100.00;100807.97;10573702;28;20394;-68
2022/10/15 06:29:07;;;;;;;17.20;9.90;;;;;;;12.73;100.00;100930.84;10571744;28;20069;-67
2022/10/15 06:34:08;;;;;;;27.92;10.63;;;;;;;12.84;100.00;100919.00;10569799;28;20040;-68
2022/10/15 06:39:08;;;;;;;16.45;9.27;;;;;;;12.95;100.00;100920.47;10573034;28;20056;-67
2022/10/15 06:44:09;;;;;;;22.35;10.82;;;;;;;12.90;100.00;100888.19;10571912;28;20059;-68
2022/10/15 06:49:10;;;;;;;12.77;9.38;;;;;;;12.91;100.00;100896.00;10571206;28;20039;-68
2022/10/15 06:54:11;;;;;;;21.92;9.55;;;;;;;13.17;100.00;100903.78;10560879;28;20044;-68
2022/10/15 06:59:12;;;;;;;23.35;11.70;;;;;;;13.05;100.00;100826.97;10547054;28;20036;-67
2022/10/15 07:04:12;;;;;;;36.30;11.80;;;;;;;13.91;100.00;100919.50;10507399;28;20114;-67
2022/10/15 07:09:13;;;;;;;15.23;7.00;;;;;;;14.03;100.00;100939.47;10501252;28;20090;-67
2022/10/15 07:14:14;;;;;;;28.25;6.97;;;;;;;13.82;100.00;100905.38;10501485;28;20039;-68
2022/10/15 07:19:15;;;;;;;18.30;7.18;;;;;;;13.94;100.00;100908.47;10542922;28;20043;-67
2022/10/15 07:24:16;;;;;;;18.27;6.18;;;;;;;14.15;100.00;100922.03;10541336;28;20044;-67
2022/10/15 07:29:16;;;;;;;7.95;5.60;;;;;;;14.22;100.00;100927.50;10541791;28;20040;-67
2022/10/15 07:34:17;;;;;;;12.80;6.50;;;;;;;14.42;100.00;100933.19;10542461;28;20043;-67
2022/10/15 07:39:18;;;;;;;9.75;6.15;;;;;;;14.31;100.00;100901.53;10542253;28;20419;-67
2022/10/15 07:44:19;;;;;;;17.33;6.07;;;;;;;13.97;100.00;100849.38;10540171;28;20040;-67
2022/10/15 08:00:08;;;;;;;14.32;6.72;;;;;;;14.16;100.00;100886.28;10530876;27;20969;-66
2022/10/15 08:05:09;;;;;;;18.38;6.15;;;;;;;14.64;100.00;100914.69;10530879;28;20072;-67
2022/10/15 08:10:12;;;;;;;9.60;5.93;;;;;;;14.99;100.00;100939.94;10531797;28;20151;-67
2022/10/15 08:15:13;;;;;;;21.92;6.72;;;;;;;14.92;100.00;100874.78;10531458;28;20046;-67
2022/10/15 08:20:13;;;;;;;6.97;4.28;;;;;;;15.25;100.00;100918.88;10529656;28;20047;-66
2022/10/15 08:25:14;;;;;;;21.30;4.20;;;;;;;15.10;100.00;100922.59;10529341;28;20045;-65
2022/10/15 08:30:15;;;;;;;6.32;3.63;;;;;;;15.21;100.00;100943.53;10530514;28;20052;-66
2022/10/15 08:35:16;;;;;;;6.90;3.70;;;;;;;15.16;100.00;100936.06;10529558;28;20032;-66
2022/10/15 08:40:23;;;;;;;11.90;4.22;;;;;;;15.23;100.00;100962.94;10530909;28;20040;-68
2022/10/15 08:45:47;;;;;;;9.07;4.00;;;;;;;15.37;100.00;100950.56;10530828;28;20497;-65
2022/10/15 08:50:58;;;;;;;10.82;4.18;;;;;;;14.98;100.00;100882.06;10530817;28;20101;-68
2022/10/15 08:56:03;;;;;;;6.38;3.40;;;;;;;15.36;100.00;100935.53;10529758;28;20055;-68
2022/10/15 09:01:21;;;;;;;17.52;6.43;;;;;;;15.55;99.68;100942.97;10529984;28;20466;-67
2022/10/15 09:06:29;;;;;;;17.83;4.75;;;;;;;15.75;99.75;100938.75;10529389;28;20047;-65
2022/10/15 09:11:39;;;;;;;7.75;3.75;;;;;;;15.91;96.96;100939.53;10502155;28;20032;-65
2022/10/15 09:16:43;;;;;;;12.80;3.38;;;;;;;15.90;96.70;100938.72;10499589;28;20490;-65
2022/10/15 09:21:48;;;;;;;5.45;3.03;;;;;;;15.86;95.27;100921.38;10501361;28;20726;-65
2022/10/15 09:27:18;;;;;;;13.18;3.05;;;;;;;16.17;92.15;100930.97;10500626;28;20094;-65
2022/10/15 09:32:30;;;;;;;22.98;3.75;;;;;;;15.43;92.41;100803.41;10500414;28;20075;-66
2022/10/15 09:37:48;;;;;;;23.73;4.18;;;;;;;16.36;91.55;100934.84;10500526;28;20040;-66
2022/10/15 09:42:51;;;;;;;7.68;3.00;;;;;;;15.85;92.10;100849.19;10500118;28;20094;-66
2022/10/15 09:47:58;;;;;;;5.30;2.75;;;;;;;16.25;91.18;100904.03;10499742;28;20250;-65
2022/10/15 09:53:34;;;;;;;6.80;3.13;;;;;;;16.12;90.85;100877.09;10501010;28;20385;-66
2022/10/15 09:58:55;;;;;;;12.02;3.25;;;;;;;16.58;89.49;100925.78;10499978;28;20139;-66
2022/10/15 10:04:17;;;;;;;7.82;3.42;;;;;;;16.74;88.50;100915.81;10499521;28;20444;-66
2022/10/15 10:09:24;;;;;;;20.95;6.13;;;;;;;15.95;88.70;100775.53;10499496;28;20040;-66
2022/10/15 10:14:35;;;;;;;28.92;7.47;;;;;;;16.38;86.41;100834.44;10498763;28;20468;-66
2022/10/15 10:19:37;;;;;;;16.40;4.80;;;;;;;16.84;87.30;100881.44;10496470;28;20044;-66
2022/10/15 10:24:38;;;;;;;7.95;3.47;;;;;;;17.13;86.44;100901.03;10491838;28;20066;-66
2022/10/15 10:29:42;;;;;;;20.17;3.70;;;;;;;17.34;85.82;100898.25;10498002;28;20142;-65
2022/10/15 10:34:43;;;;;;;7.87;1.97;;;;;;;17.37;83.89;100908.59;10498365;28;20484;-65
2022/10/15 10:39:44;;;;;;;4.70;2.40;;;;;;;16.72;84.22;100823.94;10497498;28;20060;-65
2022/10/15 10:44:45;;;;;;;7.20;4.65;;;;;;;16.77;84.24;100841.16;10497414;28;20036;-65
2022/10/15 10:49:52;;;;;;;8.75;3.30;;;;;;;17.10;83.53;100907.63;10498061;28;20037;-65
2022/10/15 10:55:17;;;;;;;7.80;3.22;;;;;;;16.64;83.77;100839.19;10498042;28;20052;-65
2022/10/15 11:00:24;;;;;;;8.55;2.85;;;;;;;17.03;83.82;100920.19;10496525;28;20036;-65
2022/10/15 11:05:28;;;;;;;6.30;2.47;;;;;;;17.10;83.63;100913.00;10497402;28;20052;-65
2022/10/15 11:10:40;;;;;;;10.15;3.33;;;;;;;17.04;82.26;100892.31;10496839;28;20178;-65
2022/10/15 11:15:53;;;;;;;13.38;4.88;;;;;;;16.74;82.26;100827.28;10495868;28;20040;-66
2022/10/15 11:21:18;;;;;;;4.07;2.17;;;;;;;17.34;79.61;100907.16;10494818;28;20385;-66
2022/10/15 11:27:03;;;;;;;12.63;4.50;;;;;;;17.39;80.44;100916.47;10496169;28;20492;-66
2022/10/15 11:32:22;;;;;;;9.73;2.75;;;;;;;17.12;80.57;100919.00;10424288;28;20049;-66
2022/10/15 11:37:55;;;;;;;10.90;4.03;;;;;;;16.99;78.63;100922.44;10496437;28;20049;-65
2022/10/15 11:43:00;;;;;;;6.80;2.60;;;;;;;16.92;80.50;100931.47;10465707;28;20402;-66
2022/10/15 11:48:09;;;;;;;7.18;2.92;;;;;;;16.83;80.96;100918.19;10448906;28;20412;-65
2022/10/15 11:53:22;;;;;;;8.25;3.92;;;;;;;16.85;80.73;100934.09;10450540;28;20040;-66
2022/10/15 11:58:29;;;;;;;6.50;2.85;;;;;;;16.38;79.91;100855.91;10452737;28;20174;-66
2022/10/15 12:07:47;;;;;;;17.10;2.80;;;;;;;16.73;80.79;100939.13;10589689;27;20461;-67
2022/10/15 12:13:21;;;;;;;6.45;2.50;;;;;;;16.45;78.64;100872.03;10574145;28;20126;-65
2022/10/15 12:18:31;;;;;;;6.43;2.17;;;;;;;16.96;78.58;100947.00;10573982;28;20078;-65
2022/10/15 12:23:35;;;;;;;9.63;2.35;;;;;;;17.04;79.66;100946.00;10574017;28;20423;-68
2022/10/15 12:28:36;;;;;;;8.23;2.85;;;;;;;17.02;79.45;100945.34;10572794;28;20504;-68
2022/10/15 12:33:46;;;;;;;13.73;3.80;;;;;;;16.96;80.30;100947.00;10572360;28;20039;-66
2022/10/15 12:39:04;;;;;;;9.60;3.95;;;;;;;16.84;79.47;100941.31;10567798;28;20096;-66
2022/10/15 12:44:22;;;;;;;4.93;2.30;;;;;;;16.77;78.73;100945.78;10573022;28;20100;-66
2022/10/15 12:49:29;;;;;;;5.55;2.28;;;;;;;16.74;79.28;100951.50;10572941;28;20035;-66
2022/10/15 12:54:45;;;;;;;9.70;3.20;;;;;;;16.78;79.10;100951.97;10572076;28;20067;-66
2022/10/15 12:59:55;;;;;;;8.52;2.60;;;;;;;16.66;79.41;100936.41;10571749;28;20123;-66
2022/10/15 13:04:56;;;;;;;8.20;3.28;;;;;;;16.68;79.48;100949.59;10571542;28;20109;-67
2022/10/15 13:09:58;;;;;;;8.30;2.58;;;;;;;16.71;78.82;100957.25;10571996;28;20086;-66
2022/10/15 13:15:04;;;;;;;8.10;2.05;;;;;;;16.67;77.70;100958.69;10567906;28;20071;-65
2022/10/15 13:20:27;;;;;;;19.45;2.67;;;;;;;16.59;78.03;100948.91;10544297;28;20093;-65
2022/10/15 13:25:27;;;;;;;7.55;2.15;;;;;;;16.64;78.37;100962.56;10543340;28;20043;-65
2022/10/15 13:30:28;;;;;;;14.05;3.95;;;;;;;16.23;78.26;100892.69;10542996;28;20039;-65
2022/10/15 13:35:31;;;;;;;15.77;11.40;;;;;;;16.55;78.32;100960.22;10541571;28;20042;-65
2022/10/15 13:40:32;;;;;;;23.27;15.63;;;;;;;16.53;78.24;100960.41;10542860;28;20502;-65
2022/10/15 13:45:33;;;;;;;13.00;6.85;;;;;;;16.49;78.06;100958.31;10542197;28;20135;-65
2022/10/15 13:50:35;;;;;;;30.85;6.45;;;;;;;16.43;78.46;100962.59;10541746;28;20059;-65
2022/10/15 13:55:42;;;;;;;16.30;8.13;;;;;;;16.37;78.45;100964.19;10542094;28;20059;-65
2022/10/15 14:00:55;;;;;;;12.68;4.57;;;;;;;16.32;78.93;100966.59;10541938;28;20050;-65
2022/10/15 14:05:57;;;;;;;13.80;3.42;;;;;;;16.17;79.55;100968.50;10541732;28;20060;-66
2022/10/15 14:10:59;;;;;;;7.20;2.95;;;;;;;16.09;79.43;100969.44;10540569;28;20070;-65
2022/10/15 14:16:28;;;;;;;7.32;2.63;;;;;;;16.06;78.74;100958.25;10540789;28;20053;-66
2022/10/15 14:21:31;;;;;;;7.35;2.20;;;;;;;16.10;79.47;100978.31;10540856;28;20105;-66
2022/10/15 14:26:33;;;;;;;12.10;2.78;;;;;;;15.91;79.64;100944.91;10534558;28;20036;-65
2022/10/15 14:31:34;;;;;;;10.13;2.60;;;;;;;16.00;80.37;100978.59;10541013;28;20076;-65
2022/10/15 14:36:42;;;;;;;5.95;2.25;;;;;;;15.97;79.86;100985.19;10539898;28;20060;-65
2022/10/15 14:42:01;;;;;;;5.20;2.40;;;;;;;15.95;80.05;100991.75;10540338;28;20039;-65
2022/10/15 14:47:02;;;;;;;32.38;15.95;;;;;;;15.86;80.46;100982.16;10539598;28;20124;-65
2022/10/15 14:52:06;;;;;;;28.27;17.63;;;;;;;15.92;80.71;100997.50;10540038;28;20040;-66
2022/10/15 14:57:23;;;;;;;17.92;8.63;;;;;;;15.93;80.63;101004.50;10540564;28;20047;-66
2022/10/15 15:02:26;;;;;;;19.25;7.93;;;;;;;15.81;80.87;101000.63;10539863;28;20050;-66
2022/10/15 15:07:27;;;;;;;6.75;3.83;;;;;;;15.82;81.06;101013.81;10539913;28;20134;-65
2022/10/15 15:12:29;;;;;;;8.43;3.67;;;;;;;15.78;81.32;101017.91;10537941;28;20130;-66
2022/10/15 15:17:30;;;;;;;6.53;2.83;;;;;;;15.74;81.68;101028.16;10538421;28;20101;-66
2022/10/15 15:22:33;;;;;;;7.35;2.35;;;;;;;15.63;81.94;101025.09;10538300;28;20081;-66
2022/10/15 15:27:36;;;;;;;9.13;2.70;;;;;;;14.83;82.50;100898.09;10538877;28;20032;-66
2022/10/15 15:32:37;;;;;;;9.60;2.55;;;;;;;15.59;83.11;101027.31;10537644;28;20508;-66
2022/10/15 15:37:37;;;;;;;4.93;2.00;;;;;;;15.62;83.37;101028.78;10535952;28;20174;-65
2022/10/15 15:42:39;;;;;;;14.32;2.22;;;;;;;15.58;83.59;101044.38;10535905;28;20032;-66
2022/10/15 15:47:40;;;;;;;5.88;2.00;;;;;;;15.18;83.63;100979.53;10536563;28;20559;-66
2022/10/15 15:52:42;;;;;;;4.82;1.77;;;;;;;15.52;84.00;101043.28;10535440;28;20184;-66
2022/10/15 15:57:44;;;;;;;5.85;1.80;;;;;;;15.50;83.93;101045.31;10536990;28;20495;-68
2022/10/15 16:02:45;;;;;;;3.00;1.80;;;;;;;15.46;83.98;101046.66;10536243;28;20530;-67
2022/10/15 16:07:45;;;;;;;11.10;2.10;;;;;;;14.66;84.19;100917.97;10537065;28;20040;-66
2022/10/15 16:12:46;;;;;;;4.03;2.45;;;;;;;15.45;84.45;101063.75;10535596;28;20423;-66
2022/10/15 16:17:47;;;;;;;6.53;1.90;;;;;;;15.46;84.83;101070.75;10515800;28;20093;-66
2022/10/15 16:22:52;;;;;;;4.82;1.58;;;;;;;15.38;85.39;101045.94;10537151;28;20410;-67
2022/10/15 16:27:55;;;;;;;9.18;1.30;;;;;;;15.39;85.12;101048.41;10534320;28;20425;-66
2022/10/15 16:32:56;;;;;;;8.00;1.70;;;;;;;15.43;84.91;101064.94;10533019;28;20531;-68
2022/10/15 16:37:57;;;;;;;4.97;1.50;;;;;;;15.41;85.34;101064.31;10528733;28;20093;-67
2022/10/15 16:42:57;;;;;;;4.57;1.73;;;;;;;15.35;85.33;101055.16;10527357;28;20044;-66
2022/10/15 16:47:58;;;;;;;2.95;1.55;;;;;;;15.22;85.75;101044.22;10521158;28;20036;-67
2022/10/15 16:52:59;;;;;;;4.43;1.48;;;;;;;15.28;85.94;101070.25;10532323;28;20040;-67
2022/10/15 16:58:00;;;;;;;6.78;1.70;;;;;;;15.35;85.91;101089.97;10532906;28;20138;-66
2022/10/15 17:03:00;;;;;;;2.72;1.63;;;;;;;15.21;85.61;101050.59;10531825;28;20131;-67
2022/10/15 17:08:01;;;;;;;2.92;1.58;;;;;;;15.26;85.76;101075.81;10535899;28;20043;-67
2022/10/15 17:13:02;;;;;;;3.42;1.50;;;;;;;15.29;85.68;101079.97;10531042;28;20044;-67
2022/10/15 17:18:03;;;;;;;5.50;1.95;;;;;;;15.31;85.72;101094.00;10535174;28;20040;-66
2022/10/15 17:23:03;;;;;;;7.82;1.85;;;;;;;15.28;85.97;101089.00;10531947;28;20395;-67
2022/10/15 17:28:05;;;;;;;6.93;2.42;;;;;;;15.23;86.72;101094.09;10535391;28;20036;-66
2022/10/15 17:33:05;;;;;;;12.40;2.40;;;;;;;15.14;87.55;101087.97;10535243;28;20083;-67
2022/10/15 17:38:06;;;;;;;5.22;2.30;;;;;;;15.03;88.41;101097.22;10535705;28;20135;-69
2022/10/15 17:43:08;;;;;;;4.15;2.28;;;;;;;14.78;89.46;101082.38;10537097;28;20040;-68
2022/10/15 17:48:08;;;;;;;4.13;2.15;;;;;;;13.66;91.17;100965.00;10531947;28;20411;-68
2022/10/15 17:53:09;;;;;;;5.85;2.38;;;;;;;14.09;92.80;101071.50;10524614;28;20044;-68
2022/10/15 17:58:10;;;;;;;6.65;3.38;;;;;;;14.16;94.38;101107.22;10535182;28;20510;-68
2022/10/15 18:03:10;;;;;;;5.38;2.33;;;;;;;14.04;94.58;101108.59;10534340;28;20048;-68
2022/10/15 18:08:11;;;;;;;6.68;2.33;;;;;;;13.22;93.17;100991.28;10532588;28;20363;-68
2022/10/15 18:13:12;;;;;;;3.70;2.53;;;;;;;13.88;92.35;101104.13;10528511;28;20043;-68
2022/10/15 18:18:14;;;;;;;4.25;2.33;;;;;;;13.86;90.61;101114.16;10534912;28;20028;-69
2022/10/15 18:23:15;;;;;;;6.35;2.42;;;;;;;13.78;88.45;101115.00;10535310;28;20067;-67
2022/10/15 18:28:16;;;;;;;3.03;2.00;;;;;;;13.73;86.78;101121.84;10535669;28;20126;-67
2022/10/15 18:33:16;;;;;;;3.60;2.30;;;;;;;13.60;84.72;101111.69;10536873;28;20051;-68
2022/10/15 18:38:17;;;;;;;6.40;2.15;;;;;;;13.68;83.84;101133.88;10536203;28;20035;-67
2022/10/15 18:43:18;;;;;;;5.97;1.90;;;;;;;13.58;82.65;101127.91;10534996;28;20109;-67
2022/10/15 18:48:19;;;;;;;4.05;2.53;;;;;;;13.59;81.19;101137.56;10534347;28;20040;-69
2022/10/15 18:53:20;;;;;;;3.08;2.13;;;;;;;13.45;80.19;101122.22;10528659;28;20138;-68
2022/10/15 18:58:20;;;;;;;3.63;2.20;;;;;;;13.52;80.20;101143.72;10517634;28;20039;-68
2022/10/15 19:03:21;;;;;;;3.38;2.20;;;;;;;13.43;79.90;101121.53;10513627;28;20048;-67
2022/10/15 19:08:22;;;;;;;3.65;2.28;;;;;;;13.52;79.72;101139.25;10511930;28;20058;-67
2022/10/15 19:13:23;;;;;;;3.65;2.45;;;;;;;13.35;79.00;101119.72;10510630;28;20047;-67
2022/10/15 19:18:24;;;;;;;3.95;2.50;;;;;;;13.42;79.35;101135.91;10520828;28;20068;-67
2022/10/15 19:23:24;;;;;;;4.20;2.28;;;;;;;13.32;79.35;101122.72;10534695;28;20522;-67
2022/10/15 19:28:26;;;;;;;5.47;2.30;;;;;;;13.39;78.90;101129.06;10535573;28;20046;-67
2022/10/15 19:33:29;;;;;;;3.78;2.38;;;;;;;13.34;78.80;101130.56;10534220;28;20461;-67
2022/10/15 19:38:29;;;;;;;4.15;2.30;;;;;;;13.45;78.68;101148.91;10533802;28;20054;-67
2022/10/15 19:43:30;;;;;;;3.83;2.08;;;;;;;13.45;78.90;101159.59;10533501;28;20044;-67
2022/10/15 19:48:31;;;;;;;5.47;2.40;;;;;;;13.40;78.32;101157.44;10534126;28;20043;-67
2022/10/15 19:53:33;;;;;;;3.78;2.13;;;;;;;13.36;78.72;101158.75;10533704;28;20040;-67
2022/10/15 19:58:34;;;;;;;5.15;2.70;;;;;;;13.29;78.61;101141.75;10534749;28;20411;-66
2022/10/15 20:03:35;;;;;;;4.55;2.30;;;;;;;12.87;78.72;101093.84;10533717;28;20058;-67
2022/10/15 20:08:35;;;;;;;5.38;2.70;;;;;;;13.18;79.13;101153.53;10534072;28;20090;-67
2022/10/15 20:13:36;;;;;;;5.22;2.70;;;;;;;13.15;79.18;101148.53;10532132;28;20460;-67
2022/10/15 20:18:37;;;;;;;5.13;3.00;;;;;;;13.11;79.17;101157.88;10533360;28;20084;-67
2022/10/15 20:23:39;;;;;;;6.45;2.88;;;;;;;12.56;80.09;101073.09;10533681;28;20032;-67
2022/10/15 20:28:43;;;;;;;4.53;2.72;;;;;;;13.05;80.14;101157.69;10541994;28;20090;-67
2022/10/15 20:33:44;;;;;;;4.07;2.65;;;;;;;12.51;80.71;101072.78;10545741;28;20047;-67
2022/10/15 20:38:44;;;;;;;4.38;2.88;;;;;;;12.53;80.66;101097.41;10545402;28;20043;-66
2022/10/15 20:43:50;;;;;;;10.88;3.00;;;;;;;12.85;81.28;101163.31;10545668;28;20040;-66
2022/10/15 20:48:53;;;;;;;5.78;2.83;;;;;;;12.72;81.55;101154.97;10543771;28;20044;-67
2022/10/15 20:53:54;;;;;;;4.97;2.63;;;;;;;12.81;81.78;101158.47;10545245;28;20043;-67
2022/10/15 20:58:55;;;;;;;6.95;3.30;;;;;;;12.35;82.37;101076.19;10542755;28;20044;-67
2022/10/15 21:03:56;;;;;;;4.47;3.33;;;;;;;12.52;82.91;101112.56;10544323;28;20487;-66
2022/10/15 21:08:57;;;;;;;6.57;3.17;;;;;;;12.78;83.94;101156.97;10544265;28;20562;-67
2022/10/15 21:14:00;;;;;;;6.78;3.35;;;;;;;12.74;84.19;101155.59;10544106;28;20043;-67
2022/10/15 21:19:01;;;;;;;4.72;3.60;;;;;;;12.71;84.74;101150.59;10544203;28;20496;-67
2022/10/15 21:24:01;;;;;;;4.85;3.50;;;;;;;12.62;85.05;101131.06;10542957;28;20040;-66
2022/10/15 21:29:02;;;;;;;7.82;3.75;;;;;;;12.16;85.57;101071.97;10541590;28;20460;-66
2022/10/15 21:34:03;;;;;;;6.35;3.70;;;;;;;12.07;87.01;101062.28;10543480;28;20070;-67
2022/10/15 21:39:06;;;;;;;8.13;4.05;;;;;;;12.20;87.87;101094.63;10543455;28;20466;-66
2022/10/15 21:44:08;;;;;;;5.70;3.92;;;;;;;12.50;88.29;101153.69;10542782;28;20119;-67
2022/10/15 21:49:09;;;;;;;6.30;4.13;;;;;;;12.47;88.43;101164.69;10542565;28;20505;-67
2022/10/15 21:54:10;;;;;;;9.43;4.55;;;;;;;12.29;89.20;101146.97;10540983;28;20040;-67
2022/10/15 21:59:10;;;;;;;5.07;4.20;;;;;;;12.32;89.90;101153.78;10541502;28;20058;-66
2022/10/15 22:04:11;;;;;;;5.30;4.25;;;;;;;12.21;90.43;101146.94;10541809;28;20052;-66
2022/10/15 22:09:12;;;;;;;5.80;4.35;;;;;;;12.24;91.18;101167.91;10542335;28;20040;-67
2022/10/15 22:14:13;;;;;;;7.00;4.45;;;;;;;12.01;91.82;101142.81;10541550;28;20051;-66
2022/10/15 22:19:15;;;;;;;6.15;4.57;;;;;;;12.06;93.28;101173.31;10540817;28;20081;-67
2022/10/15 22:24:19;;;;;;;6.03;4.50;;;;;;;11.97;94.41;101173.44;10541195;28;20051;-67
2022/10/15 22:29:29;;;;;;;6.50;4.55;;;;;;;12.01;95.91;101177.44;10540431;28;20162;-66
2022/10/15 22:34:30;;;;;;;6.05;4.63;;;;;;;11.97;94.47;101184.91;10540668;28;20123;-66
2022/10/15 22:39:31;;;;;;;8.07;5.28;;;;;;;11.84;94.86;101168.47;10540576;28;20166;-66
2022/10/15 22:44:32;;;;;;;7.50;5.05;;;;;;;11.64;95.66;101158.03;10540193;28;20197;-67
2022/10/15 22:49:32;;;;;;;7.07;5.53;;;;;;;11.77;96.35;101186.88;10539921;28;20116;-66
2022/10/15 22:54:33;;;;;;;7.97;5.63;;;;;;;11.72;96.36;101183.84;10539248;28;20051;-66
2022/10/15 22:59:34;;;;;;;9.10;5.82;;;;;;;11.69;96.92;101186.81;10539862;28;20108;-66
2022/10/15 23:04:35;;;;;;;6.75;5.53;;;;;;;11.70;97.13;101204.47;10539520;28;20060;-66
2022/10/15 23:09:36;;;;;;;6.93;5.45;;;;;;;11.65;97.96;101199.59;10540587;28;20131;-66
2022/10/15 23:14:37;;;;;;;6.82;5.30;;;;;;;11.59;98.19;101202.06;10538520;28;20457;-66
2022/10/15 23:19:37;;;;;;;8.45;6.15;;;;;;;11.51;98.44;101204.63;10538984;28;20047;-66